Time;durP1;ratioP1;P1;durP2;ratioP2;P2;SDS_P1;SDS_P2;PMS_P1;PMS_P2;Temp;Humidity;BMP_temperature;BMP_pressure;BME280_temperature;BME280_humidity;BME280_pressure;Samples;Min_cycle;Max_cycle;Signal;HPM_P1;HPM_P2
2024/03/24 00:01:57;;;;;;;5.97;5.40;;;9.00;99.90;;;;;;5094959;28;20426;-61
2024/03/24 00:04:23;;;;;;;5.07;4.67;;;9.00;99.90;;;;;;5094321;28;20196;-61
2024/03/24 00:06:48;;;;;;;5.80;5.30;;;9.00;99.90;;;;;;5093832;28;20208;-61
2024/03/24 00:09:14;;;;;;;5.13;4.73;;;9.00;99.90;;;;;;5094921;28;20168;-61
2024/03/24 00:11:42;;;;;;;5.27;4.87;;;9.00;99.90;;;;;;5075724;28;20699;-61
2024/03/24 00:14:09;;;;;;;5.43;4.93;;;9.00;99.90;;;;;;5074582;28;20201;-61
2024/03/24 00:16:35;;;;;;;5.17;4.70;;;9.10;99.90;;;;;;5080577;28;20772;-61
2024/03/24 00:19:03;;;;;;;5.40;4.90;;;9.10;99.90;;;;;;5094701;28;20403;-61
2024/03/24 00:21:30;;;;;;;4.67;4.37;;;8.90;99.90;;;;;;5094641;28;20174;-61
2024/03/24 00:23:56;;;;;;;5.70;5.20;;;9.00;99.90;;;;;;5094863;28;20398;-61
2024/03/24 00:26:21;;;;;;;5.93;5.13;;;9.00;99.90;;;;;;5095285;28;20730;-61
2024/03/24 00:28:47;;;;;;;5.60;5.00;;;9.00;99.90;;;;;;5093450;28;20199;-61
2024/03/24 00:31:13;;;;;;;4.97;4.57;;;9.00;99.90;;;;;;5094006;28;20205;-61
2024/03/24 00:33:38;;;;;;;5.73;5.33;;;9.00;99.90;;;;;;5075267;28;20664;-60
2024/03/24 00:36:04;;;;;;;6.30;5.23;;;9.10;99.90;;;;;;5110042;28;20252;-61
2024/03/24 00:38:30;;;;;;;5.53;5.03;;;8.90;99.90;;;;;;5094163;28;20223;-61
2024/03/24 00:40:56;;;;;;;7.53;5.30;;;8.90;99.90;;;;;;5093650;28;20417;-61
2024/03/24 00:43:21;;;;;;;6.60;5.10;;;8.90;99.90;;;;;;5093918;28;20173;-61
2024/03/24 00:45:48;;;;;;;9.27;5.70;;;8.90;99.90;;;;;;5075560;28;20173;-61
2024/03/24 00:48:14;;;;;;;5.63;5.17;;;8.80;99.90;;;;;;5094154;28;20579;-61
2024/03/24 00:50:39;;;;;;;6.37;5.83;;;8.90;99.90;;;;;;5075114;28;20424;-61
2024/03/24 00:53:05;;;;;;;6.40;5.80;;;9.00;99.90;;;;;;5093480;28;20520;-61
2024/03/24 00:55:31;;;;;;;6.67;6.07;;;9.00;99.90;;;;;;5094186;28;20183;-62
2024/03/24 00:57:57;;;;;;;6.47;5.97;;;9.00;99.90;;;;;;5093043;28;20216;-61
2024/03/24 01:00:23;;;;;;;6.90;6.30;;;9.00;99.90;;;;;;5093787;28;20182;-61
2024/03/24 01:02:49;;;;;;;6.90;6.30;;;9.00;99.90;;;;;;5092963;28;20514;-61
2024/03/24 01:05:15;;;;;;;6.80;6.13;;;9.00;99.90;;;;;;5093536;28;20438;-61
2024/03/24 01:07:41;;;;;;;6.73;6.10;;;8.90;99.90;;;;;;5092938;28;20507;-61
2024/03/24 01:10:07;;;;;;;6.70;6.20;;;8.90;99.90;;;;;;5093805;28;20180;-62
2024/03/24 01:12:33;;;;;;;6.60;6.00;;;8.90;99.90;;;;;;5093322;28;20201;-62
2024/03/24 01:14:59;;;;;;;7.13;6.47;;;8.90;99.90;;;;;;5093445;28;20413;-61
2024/03/24 01:17:25;;;;;;;6.37;5.77;;;8.90;99.90;;;;;;5093202;28;20511;-61
2024/03/24 01:19:51;;;;;;;7.10;6.40;;;8.90;99.90;;;;;;5092864;28;20252;-61
2024/03/24 01:22:17;;;;;;;7.57;6.77;;;9.00;99.90;;;;;;5096213;28;20499;-61
2024/03/24 01:24:42;;;;;;;9.10;7.20;;;9.00;99.90;;;;;;5111831;28;20429;-61
2024/03/24 01:27:08;;;;;;;8.17;6.90;;;9.00;99.90;;;;;;5113846;28;20173;-62
2024/03/24 01:29:34;;;;;;;7.20;6.57;;;8.90;99.90;;;;;;5111412;28;20198;-61
2024/03/24 01:32:00;;;;;;;8.87;8.00;;;8.90;99.90;;;;;;5092914;28;20205;-61
2024/03/24 01:34:26;;;;;;;8.20;7.60;;;8.90;99.90;;;;;;5093208;28;20762;-61
2024/03/24 01:36:51;;;;;;;8.30;7.60;;;8.80;99.90;;;;;;5092012;28;20209;-61
2024/03/24 01:39:17;;;;;;;7.40;6.80;;;8.90;99.90;;;;;;5092829;28;20184;-61
2024/03/24 01:41:43;;;;;;;7.60;6.90;;;9.00;99.90;;;;;;5092060;28;20181;-61
2024/03/24 01:44:09;;;;;;;7.93;7.30;;;8.90;99.90;;;;;;5093030;28;20199;-61
2024/03/24 01:46:34;;;;;;;7.87;7.17;;;9.00;99.90;;;;;;5093048;28;20225;-61
2024/03/24 01:49:00;;;;;;;8.63;7.70;;;8.90;99.90;;;;;;5092852;28;20173;-61
2024/03/24 01:51:27;;;;;;;8.20;7.50;;;9.00;99.90;;;;;;5074757;28;20460;-61
2024/03/24 01:53:54;;;;;;;9.80;7.60;;;9.00;99.90;;;;;;5105788;28;20253;-61
2024/03/24 01:56:20;;;;;;;8.07;7.37;;;9.10;99.90;;;;;;5092866;28;20406;-61
2024/03/24 01:58:46;;;;;;;8.30;7.50;;;8.90;99.90;;;;;;5092343;28;20405;-61
2024/03/24 02:01:13;;;;;;;10.80;8.13;;;8.80;99.90;;;;;;5092770;28;20404;-61
2024/03/24 02:03:39;;;;;;;8.57;7.67;;;8.70;99.90;;;;;;5092290;28;20401;-61
2024/03/24 02:06:05;;;;;;;9.67;8.30;;;8.80;99.90;;;;;;5092470;28;20498;-61
2024/03/24 02:08:31;;;;;;;8.13;7.53;;;8.80;99.90;;;;;;5092747;28;20171;-61
2024/03/24 02:10:58;;;;;;;8.27;7.23;;;8.80;99.90;;;;;;5092294;28;20402;-61
2024/03/24 02:13:24;;;;;;;9.03;8.00;;;8.80;99.90;;;;;;5092570;28;20395;-62
2024/03/24 02:15:51;;;;;;;9.40;7.00;;;8.70;99.90;;;;;;5091680;28;20404;-61
2024/03/24 02:18:17;;;;;;;8.60;7.33;;;8.60;99.90;;;;;;5092599;28;20403;-61
2024/03/24 02:20:42;;;;;;;8.20;7.53;;;8.60;99.90;;;;;;5092352;28;20754;-61
2024/03/24 02:23:09;;;;;;;7.27;6.47;;;8.70;99.90;;;;;;5104864;28;20176;-61
2024/03/24 02:25:34;;;;;;;7.10;6.53;;;8.70;99.90;;;;;;5112970;28;20161;-61
2024/03/24 02:28:00;;;;;;;7.00;6.30;;;8.60;99.90;;;;;;5096830;28;20406;-61
2024/03/24 02:30:27;;;;;;;6.40;5.90;;;8.60;99.90;;;;;;5092644;28;20161;-61
2024/03/24 02:32:53;;;;;;;6.53;5.97;;;8.70;99.90;;;;;;5091515;28;20192;-61
2024/03/24 02:35:19;;;;;;;7.13;6.43;;;8.70;99.90;;;;;;5092548;28;20404;-61
2024/03/24 02:37:45;;;;;;;6.60;5.93;;;8.60;99.90;;;;;;5091442;28;20982;-61
2024/03/24 02:40:11;;;;;;;10.40;6.57;;;8.60;99.90;;;;;;5092527;28;20418;-61
2024/03/24 02:42:37;;;;;;;8.67;6.57;;;8.70;99.90;;;;;;5092237;28;20180;-62
2024/03/24 02:45:04;;;;;;;7.73;6.93;;;8.70;99.90;;;;;;5091759;28;20407;-61
2024/03/24 02:47:31;;;;;;;7.27;6.67;;;8.80;99.90;;;;;;5092064;28;20894;-61
2024/03/24 02:50:00;;;;;;;7.90;7.17;;;8.70;99.90;;;;;;5091819;28;20444;-61
2024/03/24 02:52:26;;;;;;;6.97;6.37;;;8.80;99.90;;;;;;5099197;28;20803;-61
2024/03/24 02:54:52;;;;;;;7.40;6.73;;;8.80;99.90;;;;;;5098340;28;20493;-61
2024/03/24 02:57:18;;;;;;;7.20;6.53;;;8.80;99.90;;;;;;5092365;28;20419;-61
2024/03/24 02:59:44;;;;;;;7.23;6.73;;;8.70;99.90;;;;;;5091327;28;20420;-61
2024/03/24 03:02:11;;;;;;;7.80;7.10;;;8.70;99.90;;;;;;5092241;28;20408;-61
2024/03/24 03:04:37;;;;;;;7.90;7.30;;;8.60;99.90;;;;;;5091984;28;20197;-62
2024/03/24 03:07:03;;;;;;;8.17;7.53;;;8.60;99.90;;;;;;5095155;28;20431;-61
2024/03/24 03:09:29;;;;;;;8.67;7.77;;;8.60;99.90;;;;;;5096003;28;20480;-61
2024/03/24 03:11:55;;;;;;;8.33;7.50;;;8.60;99.90;;;;;;5095140;28;20520;-61
2024/03/24 03:14:21;;;;;;;7.60;6.90;;;8.60;99.90;;;;;;5095941;28;20455;-61
2024/03/24 03:16:46;;;;;;;8.57;7.73;;;8.60;99.90;;;;;;5094991;28;20635;-61
2024/03/24 03:19:12;;;;;;;8.67;7.70;;;8.50;99.90;;;;;;5099748;28;20173;-61
2024/03/24 03:21:38;;;;;;;7.73;7.00;;;8.60;99.90;;;;;;5114853;28;20533;-61
2024/03/24 03:24:05;;;;;;;8.57;7.77;;;8.60;99.90;;;;;;5100820;28;20178;-61
2024/03/24 03:26:30;;;;;;;8.10;7.40;;;8.50;99.90;;;;;;5077647;28;20185;-62
2024/03/24 03:28:56;;;;;;;8.33;7.53;;;8.50;99.90;;;;;;5094994;28;20396;-61
2024/03/24 03:31:22;;;;;;;8.20;7.50;;;8.50;99.90;;;;;;5077006;28;20203;-61
2024/03/24 03:33:48;;;;;;;8.47;7.67;;;8.50;99.90;;;;;;5094486;28;20174;-61
2024/03/24 03:36:13;;;;;;;7.70;6.97;;;8.60;99.90;;;;;;5095329;28;20207;-61
2024/03/24 03:38:39;;;;;;;6.90;6.40;;;8.60;99.90;;;;;;5095766;28;20181;-61
2024/03/24 03:41:05;;;;;;;6.43;5.93;;;8.50;99.90;;;;;;5094801;28;20162;-61
2024/03/24 03:43:32;;;;;;;6.07;5.57;;;8.60;99.90;;;;;;5094663;28;20161;-61
2024/03/24 03:45:58;;;;;;;7.63;6.47;;;8.60;99.90;;;;;;5094313;28;20413;-61
2024/03/24 03:48:23;;;;;;;6.23;5.73;;;8.50;99.90;;;;;;5097084;28;20430;-61
2024/03/24 03:50:49;;;;;;;6.57;6.07;;;8.40;99.90;;;;;;5094566;28;20176;-61
2024/03/24 03:53:22;;;;;;;7.20;6.53;;;8.40;99.90;;;;;;5095096;28;20168;-61
2024/03/24 03:55:53;;;;;;;6.20;5.70;;;8.40;99.90;;;;;;5094539;28;20384;-61
2024/03/24 03:58:19;;;;;;;5.70;5.30;;;8.40;99.90;;;;;;5077055;28;20409;-61
2024/03/24 04:00:46;;;;;;;6.03;5.53;;;8.40;99.90;;;;;;5094435;28;20754;-61
2024/03/24 04:03:12;;;;;;;6.07;5.50;;;8.40;99.90;;;;;;5095099;28;20400;-61
2024/03/24 04:05:41;;;;;;;5.60;5.20;;;8.50;99.90;;;;;;5095151;28;20737;-61
2024/03/24 04:08:08;;;;;;;5.20;4.80;;;8.50;99.90;;;;;;5094549;28;20839;-61
2024/03/24 04:10:35;;;;;;;5.40;4.90;;;8.50;99.90;;;;;;5094620;28;20730;-61
2024/03/24 04:13:04;;;;;;;5.50;5.10;;;8.50;99.90;;;;;;5094116;28;20921;-61
2024/03/24 04:15:30;;;;;;;5.33;4.93;;;8.50;99.90;;;;;;5094445;28;20789;-61
2024/03/24 04:17:56;;;;;;;5.87;5.47;;;8.50;99.90;;;;;;5092702;28;20440;-61
2024/03/24 04:20:22;;;;;;;7.10;5.50;;;8.50;99.90;;;;;;5114992;28;20736;-61
2024/03/24 04:22:51;;;;;;;5.37;4.97;;;8.50;99.90;;;;;;5114335;28;20619;-61
2024/03/24 04:25:18;;;;;;;5.97;5.47;;;8.50;99.90;;;;;;5096777;28;20400;-61
2024/03/24 04:27:43;;;;;;;5.40;5.00;;;8.50;99.90;;;;;;5114934;28;20423;-61
2024/03/24 04:30:09;;;;;;;5.47;5.07;;;8.40;99.90;;;;;;5094072;28;20438;-61
2024/03/24 04:32:35;;;;;;;5.87;5.37;;;8.40;99.90;;;;;;5094302;28;20258;-61
2024/03/24 04:35:02;;;;;;;5.83;5.40;;;8.40;99.90;;;;;;5093717;28;20399;-61
2024/03/24 04:37:28;;;;;;;6.20;5.60;;;8.50;99.90;;;;;;5093852;28;20467;-61
2024/03/24 04:39:54;;;;;;;5.77;5.27;;;8.50;99.90;;;;;;5093660;28;20414;-61
2024/03/24 04:42:20;;;;;;;6.03;5.53;;;8.50;99.90;;;;;;5094189;28;20412;-61
2024/03/24 04:44:46;;;;;;;6.60;6.00;;;8.50;99.90;;;;;;5074398;28;20583;-59
2024/03/24 04:47:11;;;;;;;9.90;6.73;;;8.40;99.90;;;;;;5100235;28;20881;-60
2024/03/24 04:49:37;;;;;;;7.33;6.63;;;8.40;99.90;;;;;;5093499;28;20503;-60
2024/03/24 04:52:05;;;;;;;6.97;6.37;;;8.20;99.90;;;;;;5093067;28;20204;-60
2024/03/24 04:54:31;;;;;;;7.03;6.37;;;8.20;99.90;;;;;;5093968;28;20460;-60
2024/03/24 04:56:57;;;;;;;6.93;6.33;;;8.10;99.90;;;;;;5093331;28;20382;-60
2024/03/24 04:59:22;;;;;;;6.17;5.77;;;8.10;99.90;;;;;;5075766;28;20181;-60
2024/03/24 05:01:48;;;;;;;6.47;5.93;;;8.30;99.90;;;;;;5092561;28;20437;-60
2024/03/24 05:04:14;;;;;;;6.40;5.80;;;8.20;99.90;;;;;;5093798;28;20179;-60
2024/03/24 05:06:41;;;;;;;5.87;5.43;;;8.20;99.90;;;;;;5093428;28;20185;-60
2024/03/24 05:09:08;;;;;;;5.47;5.10;;;8.40;99.90;;;;;;5092844;28;21038;-60
2024/03/24 05:11:34;;;;;;;5.03;4.63;;;8.30;99.90;;;;;;5090493;28;20475;-60
2024/03/24 05:14:00;;;;;;;6.00;5.40;;;8.40;99.90;;;;;;5097917;28;20417;-60
2024/03/24 05:16:31;;;;;;;5.60;5.20;;;8.40;99.90;;;;;;5099230;28;20762;-60
2024/03/24 05:19:02;;;;;;;5.30;4.90;;;8.30;99.90;;;;;;5092891;28;20405;-60
2024/03/24 05:21:28;;;;;;;5.57;5.17;;;8.40;99.90;;;;;;5093615;28;20409;-60
2024/03/24 05:23:54;;;;;;;4.90;4.60;;;8.20;99.90;;;;;;5092862;28;20478;-60
2024/03/24 05:26:19;;;;;;;5.53;5.03;;;8.30;99.90;;;;;;5093570;28;20168;-60
2024/03/24 05:28:45;;;;;;;5.70;5.20;;;8.30;99.90;;;;;;5093298;28;20464;-60
2024/03/24 05:31:11;;;;;;;5.53;5.13;;;8.30;99.90;;;;;;5092614;28;20211;-60
2024/03/24 05:33:36;;;;;;;5.23;4.80;;;8.30;99.90;;;;;;5093373;28;20504;-59
2024/03/24 05:36:03;;;;;;;5.17;4.77;;;8.30;99.90;;;;;;5092633;28;20260;-60
2024/03/24 05:38:31;;;;;;;6.50;5.93;;;8.30;99.90;;;;;;5093241;28;20599;-60
2024/03/24 05:41:02;;;;;;;5.50;5.10;;;8.30;99.90;;;;;;5094557;28;20467;-60
2024/03/24 05:43:28;;;;;;;6.40;5.80;;;8.30;99.90;;;;;;5110239;28;20411;-60
2024/03/24 05:45:54;;;;;;;4.67;4.27;;;8.30;99.90;;;;;;5092360;28;20402;-60
2024/03/24 05:48:21;;;;;;;6.67;5.03;;;8.40;99.90;;;;;;5092678;28;20177;-60
2024/03/24 05:50:56;;;;;;;5.20;4.80;;;8.50;99.90;;;;;;5092891;28;20403;-59
2024/03/24 05:53:22;;;;;;;5.27;4.77;;;8.40;99.90;;;;;;5092925;28;20437;-60
2024/03/24 05:55:48;;;;;;;5.53;4.87;;;8.40;99.90;;;;;;5092854;28;20408;-60
2024/03/24 05:58:13;;;;;;;4.50;4.20;;;8.30;99.90;;;;;;5092294;28;20504;-60
2024/03/24 06:00:39;;;;;;;6.30;5.70;;;8.30;99.90;;;;;;5092911;28;20518;-60
2024/03/24 06:03:05;;;;;;;5.50;5.00;;;8.30;99.90;;;;;;5092278;28;20164;-60
2024/03/24 06:05:30;;;;;;;4.90;4.60;;;8.30;99.90;;;;;;5092777;28;20631;-60
2024/03/24 06:07:56;;;;;;;4.43;4.23;;;8.30;99.90;;;;;;5092313;28;20179;-60
2024/03/24 06:10:22;;;;;;;5.00;4.60;;;8.30;99.90;;;;;;5091925;28;20230;-60
2024/03/24 06:12:48;;;;;;;4.90;4.60;;;8.40;99.90;;;;;;5111750;28;20703;-60
2024/03/24 06:15:13;;;;;;;4.33;3.97;;;8.60;99.90;;;;;;5112750;28;20458;-60
2024/03/24 06:17:39;;;;;;;4.00;3.80;;;8.50;99.90;;;;;;5099440;28;20177;-60
2024/03/24 06:20:06;;;;;;;4.23;3.83;;;8.50;99.90;;;;;;5092123;28;20166;-60
2024/03/24 06:22:32;;;;;;;3.57;3.37;;;8.50;99.90;;;;;;5092613;28;20519;-60
2024/03/24 06:24:58;;;;;;;3.67;3.47;;;8.50;99.90;;;;;;5091768;28;20395;-60
2024/03/24 06:27:24;;;;;;;4.13;3.73;;;8.50;99.90;;;;;;5092687;28;20507;-60
2024/03/24 06:29:49;;;;;;;3.57;3.37;;;8.60;99.90;;;;;;5074739;28;20172;-60
2024/03/24 06:32:15;;;;;;;4.00;3.80;;;8.50;99.90;;;;;;5091865;28;20196;-60
2024/03/24 06:34:41;;;;;;;3.80;3.60;;;8.60;99.90;;;;;;5092235;28;20677;-60
2024/03/24 06:37:06;;;;;;;3.50;3.30;;;8.60;99.90;;;;;;5091690;28;20292;-59
2024/03/24 06:39:32;;;;;;;4.87;3.43;;;8.50;99.90;;;;;;5092538;28;20181;-60
2024/03/24 06:42:03;;;;;;;5.30;4.70;;;8.40;99.90;;;;;;5102992;28;20195;-60
2024/03/24 06:44:35;;;;;;;4.37;4.07;;;8.40;99.90;;;;;;5096615;28;20383;-60
2024/03/24 06:47:02;;;;;;;4.23;4.03;;;8.50;99.90;;;;;;5096012;28;20379;-60
2024/03/24 06:49:27;;;;;;;6.07;4.20;;;8.50;99.90;;;;;;5096423;28;20782;-63
2024/03/24 06:51:53;;;;;;;5.03;4.30;;;8.50;99.90;;;;;;5079925;28;20450;-60
2024/03/24 06:54:19;;;;;;;4.70;4.23;;;8.50;99.90;;;;;;5096136;28;20251;-60
2024/03/24 06:56:45;;;;;;;4.57;4.17;;;8.60;99.90;;;;;;5078006;28;20489;-60
2024/03/24 06:59:11;;;;;;;4.97;4.57;;;8.60;99.90;;;;;;5095169;28;20168;-60
2024/03/24 07:01:37;;;;;;;5.60;5.10;;;8.60;99.90;;;;;;5095718;28;20858;-60
2024/03/24 07:04:03;;;;;;;5.30;4.83;;;8.60;99.90;;;;;;5077399;28;20506;-60
2024/03/24 07:06:30;;;;;;;4.17;3.93;;;8.40;99.90;;;;;;5095561;28;20241;-61
2024/03/24 07:08:56;;;;;;;4.00;3.70;;;8.40;99.90;;;;;;5095463;28;20881;-60
2024/03/24 07:11:22;;;;;;;3.87;3.40;;;8.30;99.90;;;;;;5102813;28;20453;-60
2024/03/24 07:13:48;;;;;;;3.50;3.30;;;8.10;99.90;;;;;;5077782;28;20179;-63
2024/03/24 07:16:13;;;;;;;3.37;3.17;;;8.10;99.90;;;;;;5095271;28;20165;-62
2024/03/24 07:18:39;;;;;;;3.40;3.10;;;8.00;99.90;;;;;;5095689;28;20168;-61
2024/03/24 07:21:08;;;;;;;3.40;3.17;;;8.10;99.90;;;;;;5100955;28;20171;-60
2024/03/24 07:23:34;;;;;;;3.90;3.57;;;8.10;99.90;;;;;;5116320;28;20171;-61
2024/03/24 07:25:59;;;;;;;3.80;3.13;;;8.10;99.90;;;;;;5097208;28;20480;-60
2024/03/24 07:28:25;;;;;;;3.40;3.20;;;8.10;99.90;;;;;;5106164;28;20168;-60
2024/03/24 07:30:51;;;;;;;3.70;3.50;;;8.20;99.90;;;;;;5095121;28;20548;-61
2024/03/24 07:33:17;;;;;;;3.30;3.10;;;8.20;99.90;;;;;;5094917;28;20172;-60
2024/03/24 07:35:43;;;;;;;3.33;3.13;;;8.10;99.90;;;;;;5095495;28;20203;-62
2024/03/24 07:38:11;;;;;;;3.03;2.93;;;8.10;99.90;;;;;;5094674;28;20482;-60
2024/03/24 07:40:37;;;;;;;3.70;3.40;;;8.10;99.90;;;;;;5095223;28;20965;-61
2024/03/24 07:43:03;;;;;;;3.60;3.43;;;8.10;99.90;;;;;;5076740;28;20425;-61
2024/03/24 07:45:31;;;;;;;3.40;3.30;;;8.10;99.90;;;;;;5095284;28;20403;-61
2024/03/24 07:47:57;;;;;;;4.00;3.73;;;8.10;99.90;;;;;;5094813;28;20460;-60
2024/03/24 07:50:23;;;;;;;3.00;2.90;;;8.10;99.90;;;;;;5094014;28;20410;-60
2024/03/24 07:52:49;;;;;;;4.20;3.90;;;8.10;99.90;;;;;;5097113;28;20305;-61
2024/03/24 07:55:14;;;;;;;4.80;4.43;;;8.10;99.90;;;;;;5094483;28;20256;-61
2024/03/24 07:57:40;;;;;;;4.00;3.80;;;8.00;99.90;;;;;;5094974;28;20255;-62
2024/03/24 08:00:07;;;;;;;4.50;4.07;;;8.00;99.90;;;;;;5094543;28;20169;-61
2024/03/24 08:02:33;;;;;;;4.30;4.10;;;8.00;99.90;;;;;;5094934;28;20262;-61
2024/03/24 08:04:58;;;;;;;4.33;4.13;;;8.10;99.90;;;;;;5094225;28;20433;-60
2024/03/24 08:07:24;;;;;;;4.33;4.13;;;8.10;99.90;;;;;;5094788;28;20912;-60
2024/03/24 08:09:50;;;;;;;4.40;4.10;;;8.10;99.90;;;;;;5095153;28;20168;-61
2024/03/24 08:12:16;;;;;;;4.30;3.93;;;8.10;99.90;;;;;;5093972;28;20805;-61
2024/03/24 08:14:42;;;;;;;3.97;3.77;;;8.20;99.90;;;;;;5094645;28;20171;-61
2024/03/24 08:17:08;;;;;;;4.10;3.90;;;8.20;99.90;;;;;;5094381;28;20260;-61
2024/03/24 08:19:34;;;;;;;4.50;4.20;;;8.20;99.90;;;;;;5079530;28;20587;-61
2024/03/24 08:22:00;;;;;;;4.60;4.20;;;8.20;99.90;;;;;;5097778;28;20889;-60
2024/03/24 08:24:25;;;;;;;4.50;4.20;;;8.20;99.90;;;;;;5093444;28;20258;-60
2024/03/24 08:26:51;;;;;;;4.60;4.30;;;8.30;99.90;;;;;;5094818;28;20207;-60
2024/03/24 08:29:17;;;;;;;4.47;4.20;;;8.20;99.90;;;;;;5094003;28;20172;-60
2024/03/24 08:31:43;;;;;;;6.13;5.63;;;8.20;99.90;;;;;;5094388;28;20211;-60
2024/03/24 08:34:08;;;;;;;5.00;4.70;;;8.20;99.90;;;;;;5093867;28;20567;-61
2024/03/24 08:36:34;;;;;;;5.73;5.43;;;8.20;99.90;;;;;;5094447;28;20212;-65
2024/03/24 08:39:00;;;;;;;7.27;6.97;;;8.40;99.90;;;;;;5093983;28;20189;-68
2024/03/24 08:41:26;;;;;;;7.30;6.90;;;9.50;99.90;;;;;;5075923;28;20173;-65
2024/03/24 08:43:54;;;;;;;7.63;7.03;;;10.40;99.90;;;;;;5093647;28;20390;-65
2024/03/24 08:46:20;;;;;;;6.40;6.10;;;11.20;99.90;;;;;;5092904;28;20510;-65
2024/03/24 08:48:48;;;;;;;5.83;5.43;;;11.70;99.90;;;;;;5093917;28;20418;-66
2024/03/24 08:51:14;;;;;;;5.50;5.10;;;12.10;99.90;;;;;;5091530;28;20470;-66
2024/03/24 08:53:40;;;;;;;4.50;4.30;;;12.40;99.90;;;;;;5093830;28;20419;-65
2024/03/24 08:56:06;;;;;;;4.40;4.20;;;12.60;99.90;;;;;;5093439;28;20400;-65
2024/03/24 08:58:32;;;;;;;4.60;4.40;;;12.80;99.90;;;;;;5093445;28;20517;-65
2024/03/24 09:00:58;;;;;;;3.93;3.80;;;13.00;99.90;;;;;;5093081;28;20400;-63
2024/03/24 09:03:24;;;;;;;5.27;4.87;;;13.10;99.90;;;;;;5092334;28;20163;-63
2024/03/24 09:05:50;;;;;;;4.40;4.20;;;13.20;99.90;;;;;;5093273;28;20519;-63
2024/03/24 09:08:15;;;;;;;3.93;3.73;;;13.40;99.90;;;;;;5092702;28;20205;-63
2024/03/24 09:10:42;;;;;;;4.00;3.80;;;13.60;99.90;;;;;;5093242;28;20455;-63
2024/03/24 09:13:07;;;;;;;4.87;4.10;;;13.80;99.90;;;;;;5092351;28;20655;-64
2024/03/24 09:15:33;;;;;;;4.40;4.10;;;13.90;99.90;;;;;;5092660;28;20451;-65
2024/03/24 09:17:59;;;;;;;4.30;4.00;;;13.90;99.90;;;;;;5092536;28;20175;-64
2024/03/24 09:20:24;;;;;;;5.50;5.00;;;13.80;99.90;;;;;;5094447;28;20176;-64
2024/03/24 09:22:51;;;;;;;5.90;5.30;;;13.70;99.90;;;;;;5092131;28;20191;-65
2024/03/24 09:25:16;;;;;;;5.33;4.90;;;13.50;99.90;;;;;;5089241;28;20167;-64
2024/03/24 09:27:45;;;;;;;5.70;5.30;;;13.40;99.90;;;;;;5073882;28;20463;-65
2024/03/24 09:30:14;;;;;;;5.40;5.00;;;13.10;99.90;;;;;;5092217;28;20176;-64
2024/03/24 09:32:40;;;;;;;5.10;4.70;;;13.00;99.90;;;;;;5092353;28;20519;-64
2024/03/24 09:35:06;;;;;;;6.40;5.90;;;13.00;99.90;;;;;;5074254;28;20405;-64
2024/03/24 09:37:32;;;;;;;7.13;6.07;;;12.70;99.90;;;;;;5092562;28;20454;-65
2024/03/24 09:39:58;;;;;;;7.20;6.30;;;12.80;99.90;;;;;;5092571;28;20478;-64
2024/03/24 09:42:27;;;;;;;10.93;8.23;;;12.80;99.90;;;;;;5092373;28;20179;-65
2024/03/24 09:44:55;;;;;;;19.67;12.50;;;13.00;99.90;;;;;;5092912;28;20188;-65
2024/03/24 09:47:23;;;;;;;9.40;6.50;;;13.20;99.90;;;;;;5098465;28;20494;-65
2024/03/24 09:49:50;;;;;;;5.93;5.43;;;13.30;99.90;;;;;;5108173;28;20480;-62
2024/03/24 09:52:20;;;;;;;19.23;14.80;;;13.20;99.90;;;;;;5091400;28;20487;-62
2024/03/24 09:54:47;;;;;;;39.50;25.70;;;13.00;99.90;;;;;;5092339;28;20427;-61
2024/03/24 09:57:13;;;;;;;10.70;7.90;;;12.70;99.90;;;;;;5091514;28;20484;-61
2024/03/24 09:59:41;;;;;;;5.93;5.33;;;12.50;99.90;;;;;;5073799;28;21101;-62
2024/03/24 10:02:09;;;;;;;5.60;5.07;;;12.30;99.90;;;;;;5091424;28;20447;-61
2024/03/24 10:04:35;;;;;;;5.50;5.00;;;12.00;99.90;;;;;;5092097;28;20804;-61
2024/03/24 10:07:01;;;;;;;7.50;5.37;;;11.70;99.90;;;;;;5092022;28;20403;-61
2024/03/24 10:09:27;;;;;;;6.30;5.33;;;11.60;99.90;;;;;;5091058;28;20503;-61
2024/03/24 10:11:52;;;;;;;9.27;5.93;;;11.30;99.90;;;;;;5091797;28;20290;-61
2024/03/24 10:14:24;;;;;;;7.17;5.17;;;11.10;99.90;;;;;;5090587;28;20206;-63
2024/03/24 10:16:50;;;;;;;6.37;5.47;;;11.00;99.90;;;;;;5089540;28;20514;-62
2024/03/24 10:19:16;;;;;;;7.83;5.30;;;10.90;99.90;;;;;;5091729;28;20462;-62
2024/03/24 10:21:42;;;;;;;7.70;5.53;;;10.90;99.90;;;;;;5091730;28;20864;-62
2024/03/24 10:24:09;;;;;;;6.90;4.90;;;10.90;99.90;;;;;;5091411;28;20169;-61
2024/03/24 10:26:39;;;;;;;5.00;4.40;;;11.10;99.90;;;;;;5092026;28;20187;-62
2024/03/24 10:29:05;;;;;;;93.57;59.03;;;11.20;99.90;;;;;;5091914;28;20430;-62
2024/03/24 10:31:35;;;;;;;55.10;32.87;;;11.30;99.90;;;;;;5091806;28;20480;-62
2024/03/24 10:34:04;;;;;;;7.00;5.93;;;11.30;99.90;;;;;;5092561;28;20398;-62
2024/03/24 10:36:37;;;;;;;11.20;4.80;;;11.30;99.90;;;;;;5091604;28;20451;-62
2024/03/24 10:39:09;;;;;;;6.23;5.00;;;11.30;99.90;;;;;;5088644;28;20490;-62
2024/03/24 10:41:35;;;;;;;9.27;5.40;;;11.40;99.90;;;;;;5092247;28;20940;-62
2024/03/24 10:44:02;;;;;;;7.10;4.57;;;11.60;99.90;;;;;;5092080;28;20402;-64
2024/03/24 10:46:32;;;;;;;11.53;4.60;;;11.90;99.90;;;;;;5087203;28;21013;-62
2024/03/24 10:49:01;;;;;;;5.53;4.60;;;12.00;99.90;;;;;;5082855;28;20406;-62
2024/03/24 10:51:31;;;;;;;4.40;4.00;;;11.90;99.90;;;;;;5091643;28;20459;-62
2024/03/24 10:54:05;;;;;;;4.90;4.40;;;11.90;99.90;;;;;;5092568;28;20414;-62
2024/03/24 10:56:31;;;;;;;4.80;4.17;;;11.90;99.90;;;;;;5089292;28;20447;-62
2024/03/24 10:59:01;;;;;;;4.43;3.80;;;11.80;99.90;;;;;;5092056;28;20398;-62
2024/03/24 11:01:27;;;;;;;7.67;4.60;;;11.70;99.90;;;;;;5073126;28;20488;-62
2024/03/24 11:03:57;;;;;;;8.50;4.63;;;11.70;99.90;;;;;;5089080;28;20473;-63
2024/03/24 11:06:27;;;;;;;5.30;4.37;;;11.60;99.90;;;;;;5091231;28;20473;-62
2024/03/24 11:08:53;;;;;;;5.97;4.50;;;11.60;99.90;;;;;;5092080;28;20413;-62
2024/03/24 11:11:19;;;;;;;48.87;32.27;;;11.60;99.90;;;;;;5091335;28;20446;-61
2024/03/24 11:13:46;;;;;;;72.90;52.37;;;11.40;99.90;;;;;;5091835;28;20221;-62
2024/03/24 11:16:12;;;;;;;8.00;4.87;;;11.30;99.90;;;;;;5073440;28;20801;-61
2024/03/24 11:18:39;;;;;;;4.20;3.80;;;11.10;99.90;;;;;;5108334;28;20386;-62
2024/03/24 11:21:06;;;;;;;4.73;4.30;;;11.00;99.90;;;;;;5092228;28;20168;-62
2024/03/24 11:23:39;;;;;;;4.57;3.60;;;10.90;99.90;;;;;;5091495;28;20713;-62
2024/03/24 11:26:07;;;;;;;6.27;4.10;;;10.70;99.90;;;;;;5098990;28;20440;-62
2024/03/24 11:28:48;;;;;;;5.70;3.90;;;10.40;99.90;;;;;;5095129;28;20392;-61
2024/03/24 11:31:15;;;;;;;4.07;3.73;;;10.20;99.90;;;;;;5094379;28;20919;-61
2024/03/24 11:33:43;;;;;;;4.00;3.70;;;10.00;99.90;;;;;;5097383;28;20832;-61
2024/03/24 11:36:19;;;;;;;6.77;3.90;;;9.90;99.90;;;;;;5109256;28;20421;-61
2024/03/24 11:38:46;;;;;;;7.17;4.03;;;9.80;99.90;;;;;;5095612;28;20504;-62
2024/03/24 11:41:16;;;;;;;4.80;4.40;;;9.80;99.90;;;;;;5094855;28;20424;-61
2024/03/24 11:43:42;;;;;;;4.37;3.93;;;9.70;99.90;;;;;;5095435;28;20394;-62
2024/03/24 11:46:11;;;;;;;4.37;3.97;;;9.90;99.90;;;;;;5095448;28;20390;-63
2024/03/24 11:48:38;;;;;;;5.13;4.43;;;9.90;99.90;;;;;;5095014;28;20460;-62
2024/03/24 11:51:05;;;;;;;5.33;4.13;;;9.90;99.90;;;;;;5094237;28;20429;-62
2024/03/24 11:53:31;;;;;;;7.93;4.00;;;9.90;99.90;;;;;;5094642;28;20753;-61
2024/03/24 11:56:01;;;;;;;5.77;4.63;;;9.90;99.90;;;;;;5103360;28;20424;-61
2024/03/24 11:58:27;;;;;;;153.57;89.53;;;9.90;99.90;;;;;;5095118;28;20863;-61
2024/03/24 12:00:53;;;;;;;6.30;4.73;;;9.90;99.90;;;;;;5094981;28;20902;-60
2024/03/24 12:03:19;;;;;;;8.20;4.73;;;9.80;99.90;;;;;;5076191;28;20508;-62
2024/03/24 12:05:45;;;;;;;8.17;4.40;;;9.80;99.90;;;;;;5094992;28;20411;-63
2024/03/24 12:08:12;;;;;;;6.10;4.07;;;9.80;99.90;;;;;;5095009;28;20424;-66
2024/03/24 12:10:38;;;;;;;6.67;4.80;;;9.90;99.90;;;;;;5094582;28;20520;-61
2024/03/24 12:13:04;;;;;;;4.53;4.10;;;9.80;99.90;;;;;;5094846;28;20533;-61
2024/03/24 12:15:30;;;;;;;5.10;4.63;;;9.80;99.90;;;;;;5075914;28;20457;-61
2024/03/24 12:18:09;;;;;;;8.03;5.33;;;9.80;99.90;;;;;;5092001;28;20509;-61
2024/03/24 12:20:36;;;;;;;5.37;4.60;;;9.70;99.90;;;;;;5105879;28;20431;-61
2024/03/24 12:23:05;;;;;;;4.77;4.03;;;9.70;99.90;;;;;;5098444;28;20413;-61
2024/03/24 12:25:32;;;;;;;4.63;4.10;;;9.60;99.90;;;;;;5094102;28;20392;-61
2024/03/24 12:27:58;;;;;;;4.60;4.20;;;9.60;99.90;;;;;;5094464;28;20415;-61
2024/03/24 12:30:26;;;;;;;7.10;4.90;;;9.60;99.90;;;;;;5093009;28;20482;-61
2024/03/24 12:32:52;;;;;;;6.33;4.30;;;9.60;99.90;;;;;;5093705;28;20449;-61
2024/03/24 12:35:19;;;;;;;4.70;4.33;;;9.70;99.90;;;;;;5075823;28;20890;-61
2024/03/24 12:37:46;;;;;;;4.53;4.13;;;9.80;99.90;;;;;;5092754;28;20849;-61
2024/03/24 12:40:19;;;;;;;8.20;4.50;;;9.80;99.90;;;;;;5094332;28;20407;-61
2024/03/24 12:42:49;;;;;;;5.17;4.10;;;10.00;99.90;;;;;;5076331;28;20412;-61
2024/03/24 12:45:16;;;;;;;4.43;4.03;;;10.20;99.90;;;;;;5093740;28;20924;-61
2024/03/24 12:47:45;;;;;;;5.57;3.67;;;10.40;99.90;;;;;;5103470;28;20417;-61
2024/03/24 12:50:27;;;;;;;8.13;4.30;;;10.60;99.90;;;;;;5103566;28;20422;-61